Dillon, Montana
Current Conditions -  °F | °C
As of 12:53 AM on Saturday 20 Dec 2014 (Local Time) from KDLN Reporting Station
Clear Clear  
Wind Chill: -6°   Ceiling: Unl
Heat Index: -2°   Visibility: 10mi
Dew Point: -6°   Wind: 7mph
Humidity: 75%   Direction: 230°SW
Pressure: 29.98"   Gusts: NA
Location:  45.22°N, 112.64°W
Report Text: KDLN 200753Z AUTO 23006KT 10SM CLR M02/M06 A2998 RMK AO2 SLP175 T10221061
Loading
Personal Weather Stations






























Interactive Weather Map New forecast layout! Learn more

10-Day Weather Forecast

Advertisements
Track Severe Weather on mobile